Time,TemperatureF,DewpointF,PressureIn,WindDirection,WindDirectionDegrees,WindSpeedMPH,WindSpeedGustMPH,Humidity,HourlyPrecipIn,Conditions,Clouds,dailyrainin,SoftwareType,DateUTC
2013-10-27 00:02:00,48.4,39.0,30.10,ESE,122,0.0,0.0,71,0.00,,,0.00,weatherlink.com 1.10,2013-10-27 04:02:00,
2013-10-27 00:17:00,49.0,39.0,30.09,ESE,121,0.0,0.0,68,0.00,,,0.00,weatherlink.com 1.10,2013-10-27 04:17:00,
2013-10-27 00:32:00,49.4,39.0,30.10,ESE,122,0.0,0.0,67,0.00,,,0.00,weatherlink.com 1.10,2013-10-27 04:32:00,
2013-10-27 00:47:00,50.0,39.0,30.09,ESE,122,0.0,1.0,67,0.00,,,0.00,weatherlink.com 1.10,2013-10-27 04:47:00,
2013-10-27 01:02:00,50.2,40.0,30.09,ESE,122,0.0,1.0,68,0.00,,,0.00,weatherlink.com 1.10,2013-10-27 05:02:00,
2013-10-27 01:17:00,50.1,39.0,30.09,ESE,122,0.0,1.0,65,0.00,,,0.00,weatherlink.com 1.10,2013-10-27 05:17:00,
2013-10-27 01:32:00,49.9,38.0,30.09,ESE,122,0.0,1.0,65,0.00,,,0.00,weatherlink.com 1.10,2013-10-27 05:32:00,
2013-10-27 01:47:00,49.9,38.0,30.09,ESE,121,0.0,1.0,65,0.00,,,0.00,weatherlink.com 1.10,2013-10-27 05:47:00,
2013-10-27 02:02:00,49.8,38.0,30.09,ESE,121,0.0,0.0,65,0.00,,,0.00,weatherlink.com 1.10,2013-10-27 06:02:00,
2013-10-27 02:17:00,49.7,39.0,30.09,ESE,122,0.0,1.0,66,0.00,,,0.00,weatherlink.com 1.10,2013-10-27 06:17:00,
2013-10-27 02:32:00,49.4,38.0,30.09,ESE,122,0.0,1.0,65,0.00,,,0.00,weatherlink.com 1.10,2013-10-27 06:32:00,
2013-10-27 02:47:00,48.9,39.0,30.09,ESE,122,0.0,0.0,68,0.00,,,0.00,weatherlink.com 1.10,2013-10-27 06:47:00,
2013-10-27 03:02:00,48.7,40.0,30.09,ESE,121,0.0,1.0,71,0.00,,,0.00,weatherlink.com 1.10,2013-10-27 07:02:00,
2013-10-27 03:17:00,48.3,39.0,30.09,ESE,122,0.0,0.0,69,0.00,,,0.00,weatherlink.com 1.10,2013-10-27 07:17:00,
2013-10-27 03:32:00,48.0,39.0,30.08,ESE,121,0.0,0.0,71,0.00,,,0.00,weatherlink.com 1.10,2013-10-27 07:32:00,
2013-10-27 03:47:00,47.8,39.0,30.08,ESE,123,0.0,0.0,72,0.00,,,0.00,weatherlink.com 1.10,2013-10-27 07:47:00,
2013-10-27 04:02:00,47.6,38.0,30.08,ESE,121,0.0,0.0,70,0.00,,,0.00,weatherlink.com 1.10,2013-10-27 08:02:00,
2013-10-27 04:17:00,47.3,39.0,30.08,ESE,122,0.0,0.0,72,0.00,,,0.00,weatherlink.com 1.10,2013-10-27 08:17:00,
2013-10-27 04:32:00,47.1,39.0,30.07,ESE,122,0.0,0.0,73,0.00,,,0.00,weatherlink.com 1.10,2013-10-27 08:32:00,
2013-10-27 04:47:00,46.8,39.0,30.08,ESE,121,0.0,0.0,74,0.00,,,0.00,weatherlink.com 1.10,2013-10-27 08:47:00,
2013-10-27 05:02:00,46.5,39.0,30.07,ESE,122,0.0,0.0,75,0.00,,,0.00,weatherlink.com 1.10,2013-10-27 09:02:00,
2013-10-27 05:18:00,46.6,39.0,30.08,ESE,122,0.0,0.0,76,0.00,,,0.00,weatherlink.com 1.10,2013-10-27 09:18:00,
2013-10-27 05:33:00,46.7,40.0,30.08,ESE,122,0.0,0.0,77,0.00,,,0.00,weatherlink.com 1.10,2013-10-27 09:33:00,
2013-10-27 05:48:00,46.7,39.0,30.08,ESE,122,0.0,0.0,75,0.00,,,0.00,weatherlink.com 1.10,2013-10-27 09:48:00,
2013-10-27 06:03:00,46.7,40.0,30.09,ESE,122,0.0,0.0,77,0.00,,,0.00,weatherlink.com 1.10,2013-10-27 10:03:00,
2013-10-27 06:18:00,46.6,39.0,30.08,ESE,122,0.0,0.0,75,0.00,,,0.00,weatherlink.com 1.10,2013-10-27 10:18:00,
2013-10-27 06:33:00,46.3,39.0,30.09,ESE,121,0.0,0.0,76,0.00,,,0.00,weatherlink.com 1.10,2013-10-27 10:33:00,
2013-10-27 06:48:00,45.8,39.0,30.09,ESE,122,0.0,0.0,76,0.00,,,0.00,weatherlink.com 1.10,2013-10-27 10:48:00,
2013-10-27 07:03:00,45.4,39.0,30.09,ESE,122,0.0,0.0,77,0.00,,,0.00,weatherlink.com 1.10,2013-10-27 11:03:00,
2013-10-27 07:18:00,45.0,39.0,30.09,ESE,122,0.0,0.0,78,0.00,,,0.00,weatherlink.com 1.10,2013-10-27 11:18:00,
2013-10-27 07:33:00,44.6,38.0,30.10,ESE,121,0.0,0.0,79,0.00,,,0.00,weatherlink.com 1.10,2013-10-27 11:33:00,
2013-10-27 07:48:00,44.2,38.0,30.10,ESE,122,0.0,0.0,80,0.00,,,0.00,weatherlink.com 1.10,2013-10-27 11:48:00,
2013-10-27 08:03:00,44.0,38.0,30.11,ESE,121,0.0,0.0,80,0.00,,,0.00,weatherlink.com 1.10,2013-10-27 12:03:00,
2013-10-27 08:18:00,43.9,38.0,30.12,ESE,122,0.0,0.0,80,0.00,,,0.00,weatherlink.com 1.10,2013-10-27 12:18:00,
2013-10-27 08:33:00,43.8,38.0,30.13,ESE,122,0.0,0.0,81,0.00,,,0.00,weatherlink.com 1.10,2013-10-27 12:33:00,
2013-10-27 08:48:00,44.0,39.0,30.13,ESE,123,0.0,0.0,81,0.00,,,0.00,weatherlink.com 1.10,2013-10-27 12:48:00,
2013-10-27 09:03:00,44.5,39.0,30.13,ESE,121,0.0,0.0,82,0.00,,,0.00,weatherlink.com 1.10,2013-10-27 13:03:00,
2013-10-27 09:18:00,45.4,40.0,30.14,ESE,122,0.0,1.0,81,0.00,,,0.00,weatherlink.com 1.10,2013-10-27 13:18:00,
2013-10-27 09:33:00,46.7,41.0,30.14,ESE,122,0.0,0.0,80,0.00,,,0.00,weatherlink.com 1.10,2013-10-27 13:33:00,
2013-10-27 09:48:00,47.9,42.0,30.15,ESE,122,0.0,1.0,80,0.00,,,0.00,weatherlink.com 1.10,2013-10-27 13:48:00,
2013-10-27 10:03:00,49.0,42.0,30.15,ESE,122,0.0,0.0,78,0.00,,,0.00,weatherlink.com 1.10,2013-10-27 14:03:00,
2013-10-27 10:18:00,50.2,43.0,30.15,ESE,122,0.0,0.0,76,0.00,,,0.00,weatherlink.com 1.10,2013-10-27 14:18:00,
2013-10-27 10:33:00,51.7,44.0,30.15,ESE,121,0.0,0.0,74,0.00,,,0.00,weatherlink.com 1.10,2013-10-27 14:33:00,
2013-10-27 10:48:00,53.0,45.0,30.15,ESE,122,0.0,1.0,73,0.00,,,0.00,weatherlink.com 1.10,2013-10-27 14:48:00,
2013-10-27 11:03:00,54.5,44.0,30.14,ESE,122,0.0,1.0,67,0.00,,,0.00,weatherlink.com 1.10,2013-10-27 15:03:00,
2013-10-27 11:18:00,55.9,44.0,30.15,ESE,122,1.0,2.0,64,0.00,,,0.00,weatherlink.com 1.10,2013-10-27 15:18:00,
2013-10-27 11:33:00,57.2,44.0,30.15,East,100,0.0,1.0,61,0.00,,,0.00,weatherlink.com 1.10,2013-10-27 15:33:00,
2013-10-27 11:48:00,58.2,45.0,30.15,East,101,0.0,1.0,61,0.00,,,0.00,weatherlink.com 1.10,2013-10-27 15:48:00,
2013-10-27 12:03:00,59.3,44.0,30.15,South,186,0.0,2.0,57,0.00,,,0.00,weatherlink.com 1.10,2013-10-27 16:03:00,
2013-10-27 12:18:00,60.1,43.0,30.14,South,191,1.0,2.0,54,0.00,,,0.00,weatherlink.com 1.10,2013-10-27 16:18:00,
2013-10-27 12:33:00,60.6,42.0,30.14,SSE,154,0.0,2.0,51,0.00,,,0.00,weatherlink.com 1.10,2013-10-27 16:33:00,
2013-10-27 12:48:00,61.0,41.0,30.12,ESE,103,0.0,1.0,49,0.00,,,0.00,weatherlink.com 1.10,2013-10-27 16:48:00,
2013-10-27 13:04:00,61.3,41.0,30.12,SE,128,0.0,2.0,48,0.00,,,0.00,weatherlink.com 1.10,2013-10-27 17:04:00,
2013-10-27 13:19:00,61.8,42.0,30.11,East,96,1.0,2.0,49,0.00,,,0.00,weatherlink.com 1.10,2013-10-27 17:19:00,
2013-10-27 13:34:00,62.1,43.0,30.10,East,96,1.0,2.0,49,0.00,,,0.00,weatherlink.com 1.10,2013-10-27 17:34:00,
2013-10-27 13:49:00,62.7,42.0,30.09,NNE,13,0.0,2.0,47,0.00,,,0.00,weatherlink.com 1.10,2013-10-27 17:49:00,
2013-10-27 14:04:00,62.5,43.0,30.09,NNE,13,0.0,0.0,50,0.00,,,0.00,weatherlink.com 1.10,2013-10-27 18:04:00,
2013-10-27 14:19:00,62.4,44.0,30.09,NNE,13,0.0,0.0,51,0.00,,,0.00,weatherlink.com 1.10,2013-10-27 18:19:00,
2013-10-27 14:34:00,62.5,43.0,30.08,NE,56,0.0,2.0,49,0.00,,,0.00,weatherlink.com 1.10,2013-10-27 18:34:00,
2013-10-27 14:49:00,62.7,44.0,30.08,ENE,57,0.0,0.0,50,0.00,,,0.00,weatherlink.com 1.10,2013-10-27 18:49:00,
2013-10-27 15:04:00,62.7,43.0,30.08,ENE,57,0.0,1.0,48,0.00,,,0.00,weatherlink.com 1.10,2013-10-27 19:04:00,
2013-10-27 15:19:00,62.6,42.0,30.07,NE,55,0.0,2.0,47,0.00,,,0.00,weatherlink.com 1.10,2013-10-27 19:19:00,
2013-10-27 15:34:00,62.8,42.0,30.07,NNE,26,1.0,3.0,46,0.00,,,0.00,weatherlink.com 1.10,2013-10-27 19:34:00,
2013-10-27 15:49:00,63.0,43.0,30.08,NNE,26,0.0,2.0,49,0.00,,,0.00,weatherlink.com 1.10,2013-10-27 19:49:00,
2013-10-27 16:04:00,63.0,44.0,30.08,NNE,26,0.0,1.0,50,0.00,,,0.00,weatherlink.com 1.10,2013-10-27 20:04:00,
2013-10-27 16:19:00,63.0,43.0,30.08,NNE,26,0.0,1.0,49,0.00,,,0.00,weatherlink.com 1.10,2013-10-27 20:19:00,
2013-10-27 16:34:00,63.1,45.0,30.08,NNE,26,0.0,1.0,53,0.00,,,0.00,weatherlink.com 1.10,2013-10-27 20:34:00,
2013-10-27 16:49:00,63.0,43.0,30.08,NNE,26,0.0,0.0,48,0.00,,,0.00,weatherlink.com 1.10,2013-10-27 20:49:00,
2013-10-27 17:04:00,62.8,42.0,30.07,NNE,26,0.0,0.0,47,0.00,,,0.00,weatherlink.com 1.10,2013-10-27 21:04:00,
2013-10-27 17:19:00,62.5,43.0,30.07,NNE,26,0.0,0.0,49,0.00,,,0.00,weatherlink.com 1.10,2013-10-27 21:19:00,
2013-10-27 17:34:00,62.1,44.0,30.08,NNE,26,0.0,0.0,52,0.00,,,0.00,weatherlink.com 1.10,2013-10-27 21:34:00,
2013-10-27 17:49:00,61.4,44.0,30.08,NNE,26,0.0,0.0,54,0.00,,,0.00,weatherlink.com 1.10,2013-10-27 21:49:00,
2013-10-27 18:04:00,60.6,45.0,30.08,NNE,26,0.0,0.0,56,0.00,,,0.00,weatherlink.com 1.10,2013-10-27 22:04:00,
2013-10-27 18:19:00,59.7,46.0,30.08,NNE,26,0.0,0.0,60,0.00,,,0.00,weatherlink.com 1.10,2013-10-27 22:19:00,
2013-10-27 18:34:00,58.7,46.0,30.09,NNE,26,0.0,0.0,63,0.00,,,0.00,weatherlink.com 1.10,2013-10-27 22:34:00,
2013-10-27 18:49:00,57.6,46.0,30.09,NNE,26,0.0,0.0,65,0.00,,,0.00,weatherlink.com 1.10,2013-10-27 22:49:00,
2013-10-27 19:04:00,56.6,46.0,30.10,NNE,26,0.0,0.0,68,0.00,,,0.00,weatherlink.com 1.10,2013-10-27 23:04:00,
2013-10-27 19:19:00,55.7,46.0,30.10,NNE,26,0.0,0.0,69,0.00,,,0.00,weatherlink.com 1.10,2013-10-27 23:19:00,
2013-10-27 19:34:00,55.0,45.0,30.11,NNE,26,0.0,0.0,70,0.00,,,0.00,weatherlink.com 1.10,2013-10-27 23:34:00,
2013-10-27 19:49:00,54.4,46.0,30.11,NNE,25,0.0,0.0,72,0.00,,,0.00,weatherlink.com 1.10,2013-10-27 23:49:00,
2013-10-27 20:04:00,53.9,46.0,30.12,NNE,26,0.0,0.0,74,0.00,,,0.00,weatherlink.com 1.10,2013-10-28 00:04:00,
2013-10-27 20:19:00,53.5,46.0,30.12,NNE,26,0.0,1.0,76,0.00,,,0.00,weatherlink.com 1.10,2013-10-28 00:19:00,
2013-10-27 20:34:00,53.2,46.0,30.12,NNE,26,0.0,1.0,77,0.00,,,0.00,weatherlink.com 1.10,2013-10-28 00:34:00,
2013-10-27 20:49:00,52.9,46.0,30.12,NNE,26,0.0,1.0,77,0.00,,,0.00,weatherlink.com 1.10,2013-10-28 00:49:00,
2013-10-27 21:04:00,52.6,46.0,30.12,NNE,26,0.0,0.0,78,0.00,,,0.00,weatherlink.com 1.10,2013-10-28 01:04:00,
2013-10-27 21:19:00,52.3,46.0,30.12,NNE,26,0.0,0.0,79,0.00,,,0.00,weatherlink.com 1.10,2013-10-28 01:19:00,
2013-10-27 21:34:00,51.9,46.0,30.13,NNE,26,0.0,1.0,79,0.00,,,0.00,weatherlink.com 1.10,2013-10-28 01:34:00,
2013-10-27 21:49:00,51.6,46.0,30.14,NNE,26,0.0,0.0,80,0.00,,,0.00,weatherlink.com 1.10,2013-10-28 01:49:00,
2013-10-27 22:04:00,51.3,45.0,30.14,NNE,26,0.0,0.0,79,0.00,,,0.00,weatherlink.com 1.10,2013-10-28 02:04:00,
2013-10-27 22:19:00,50.9,45.0,30.15,NNE,25,0.0,0.0,80,0.00,,,0.00,weatherlink.com 1.10,2013-10-28 02:19:00,
2013-10-27 22:34:00,50.7,45.0,30.15,NNE,26,0.0,0.0,80,0.00,,,0.00,weatherlink.com 1.10,2013-10-28 02:34:00,
2013-10-27 22:49:00,50.3,44.0,30.15,NNE,26,0.0,0.0,80,0.00,,,0.00,weatherlink.com 1.10,2013-10-28 02:49:00,
2013-10-27 23:04:00,49.9,44.0,30.15,NNE,26,0.0,0.0,80,0.00,,,0.00,weatherlink.com 1.10,2013-10-28 03:04:00,
2013-10-27 23:19:00,49.6,44.0,30.15,NNE,26,0.0,0.0,80,0.00,,,0.00,weatherlink.com 1.10,2013-10-28 03:19:00,
2013-10-27 23:34:00,49.3,43.0,30.15,NNE,26,0.0,0.0,80,0.00,,,0.00,weatherlink.com 1.10,2013-10-28 03:34:00,
2013-10-27 23:49:00,49.0,43.0,30.15,NNE,26,0.0,0.0,81,0.00,,,0.00,weatherlink.com 1.10,2013-10-28 03:49:00,